sensor_id;sensor_type;location;lat;lon;timestamp;P1;durP1;ratioP1;P2;durP2;ratioP2
43678;SDS011;29279;50.858;4.392;2022-08-05T00:00:28;12.27;;;4.97;;
43678;SDS011;29279;50.858;4.392;2022-08-05T00:02:54;12.18;;;4.47;;
43678;SDS011;29279;50.858;4.392;2022-08-05T00:05:19;13.15;;;4.03;;
43678;SDS011;29279;50.858;4.392;2022-08-05T00:07:45;9.45;;;3.60;;
43678;SDS011;29279;50.858;4.392;2022-08-05T00:10:11;9.40;;;3.95;;
43678;SDS011;29279;50.858;4.392;2022-08-05T00:12:37;13.23;;;3.42;;
43678;SDS011;29279;50.858;4.392;2022-08-05T00:15:03;7.00;;;3.40;;
43678;SDS011;29279;50.858;4.392;2022-08-05T00:17:29;10.02;;;3.85;;
43678;SDS011;29279;50.858;4.392;2022-08-05T00:19:55;13.93;;;3.78;;
43678;SDS011;29279;50.858;4.392;2022-08-05T00:22:21;8.00;;;3.58;;
43678;SDS011;29279;50.858;4.392;2022-08-05T00:24:46;12.30;;;3.28;;
43678;SDS011;29279;50.858;4.392;2022-08-05T00:27:12;8.45;;;3.40;;
43678;SDS011;29279;50.858;4.392;2022-08-05T00:29:38;12.27;;;3.38;;
43678;SDS011;29279;50.858;4.392;2022-08-05T00:32:04;8.20;;;3.30;;
43678;SDS011;29279;50.858;4.392;2022-08-05T00:34:30;9.70;;;3.28;;
43678;SDS011;29279;50.858;4.392;2022-08-05T00:36:56;10.23;;;3.17;;
43678;SDS011;29279;50.858;4.392;2022-08-05T00:39:21;10.90;;;3.10;;
43678;SDS011;29279;50.858;4.392;2022-08-05T00:41:47;9.55;;;3.55;;
43678;SDS011;29279;50.858;4.392;2022-08-05T00:44:13;11.43;;;3.03;;
43678;SDS011;29279;50.858;4.392;2022-08-05T00:46:39;9.18;;;3.22;;
43678;SDS011;29279;50.858;4.392;2022-08-05T00:49:04;10.93;;;3.70;;
43678;SDS011;29279;50.858;4.392;2022-08-05T00:51:30;8.82;;;3.72;;
43678;SDS011;29279;50.858;4.392;2022-08-05T00:53:56;8.80;;;3.35;;
43678;SDS011;29279;50.858;4.392;2022-08-05T00:56:21;7.18;;;3.05;;
43678;SDS011;29279;50.858;4.392;2022-08-05T00:58:47;6.70;;;3.42;;
43678;SDS011;29279;50.858;4.392;2022-08-05T01:01:13;6.32;;;3.25;;
43678;SDS011;29279;50.858;4.392;2022-08-05T01:03:40;8.18;;;3.20;;
43678;SDS011;29279;50.858;4.392;2022-08-05T01:06:06;10.95;;;3.33;;
43678;SDS011;29279;50.858;4.392;2022-08-05T01:08:32;8.55;;;2.95;;
43678;SDS011;29279;50.858;4.392;2022-08-05T01:11:08;11.38;;;3.53;;
43678;SDS011;29279;50.858;4.392;2022-08-05T01:13:44;7.80;;;3.92;;
43678;SDS011;29279;50.858;4.392;2022-08-05T01:16:26;11.02;;;3.58;;
43678;SDS011;29279;50.858;4.392;2022-08-05T01:19:09;11.52;;;3.40;;
43678;SDS011;29279;50.858;4.392;2022-08-05T01:22:06;12.25;;;4.10;;
43678;SDS011;29279;50.858;4.392;2022-08-05T01:30:18;9.82;;;4.10;;
43678;SDS011;29279;50.858;4.392;2022-08-05T01:32:44;10.73;;;3.67;;
43678;SDS011;29279;50.858;4.392;2022-08-05T01:35:17;12.18;;;3.92;;
43678;SDS011;29279;50.858;4.392;2022-08-05T01:37:50;9.43;;;3.22;;
43678;SDS011;29279;50.858;4.392;2022-08-05T01:40:20;9.40;;;3.53;;
43678;SDS011;29279;50.858;4.392;2022-08-05T01:42:50;13.00;;;3.65;;
43678;SDS011;29279;50.858;4.392;2022-08-05T01:45:18;10.50;;;4.20;;
43678;SDS011;29279;50.858;4.392;2022-08-05T01:47:45;15.23;;;3.67;;
43678;SDS011;29279;50.858;4.392;2022-08-05T01:50:19;15.88;;;4.22;;
43678;SDS011;29279;50.858;4.392;2022-08-05T01:52:48;6.68;;;3.17;;
43678;SDS011;29279;50.858;4.392;2022-08-05T01:55:17;9.45;;;3.30;;
43678;SDS011;29279;50.858;4.392;2022-08-05T01:57:47;8.98;;;3.38;;
43678;SDS011;29279;50.858;4.392;2022-08-05T02:00:16;12.50;;;4.13;;
43678;SDS011;29279;50.858;4.392;2022-08-05T02:02:47;12.20;;;3.92;;
43678;SDS011;29279;50.858;4.392;2022-08-05T02:05:32;9.68;;;3.50;;
43678;SDS011;29279;50.858;4.392;2022-08-05T02:08:00;13.40;;;3.78;;
43678;SDS011;29279;50.858;4.392;2022-08-05T02:10:30;9.68;;;3.58;;
43678;SDS011;29279;50.858;4.392;2022-08-05T02:15:39;11.55;;;3.72;;
43678;SDS011;29279;50.858;4.392;2022-08-05T02:18:13;9.05;;;3.42;;
43678;SDS011;29279;50.858;4.392;2022-08-05T02:21:01;10.45;;;4.07;;
43678;SDS011;29279;50.858;4.392;2022-08-05T02:23:32;13.65;;;4.28;;
43678;SDS011;29279;50.858;4.392;2022-08-05T02:26:01;10.63;;;4.07;;
43678;SDS011;29279;50.858;4.392;2022-08-05T02:28:30;12.55;;;4.28;;
43678;SDS011;29279;50.858;4.392;2022-08-05T02:31:04;12.00;;;3.70;;
43678;SDS011;29279;50.858;4.392;2022-08-05T02:33:46;14.55;;;4.05;;
43678;SDS011;29279;50.858;4.392;2022-08-05T02:36:15;18.27;;;4.30;;
43678;SDS011;29279;50.858;4.392;2022-08-05T02:38:45;11.43;;;4.35;;
43678;SDS011;29279;50.858;4.392;2022-08-05T02:41:12;14.73;;;4.57;;
43678;SDS011;29279;50.858;4.392;2022-08-05T02:43:39;11.20;;;4.35;;
43678;SDS011;29279;50.858;4.392;2022-08-05T02:46:06;15.95;;;4.43;;
43678;SDS011;29279;50.858;4.392;2022-08-05T02:48:32;11.68;;;4.22;;
43678;SDS011;29279;50.858;4.392;2022-08-05T02:50:59;14.48;;;5.15;;
43678;SDS011;29279;50.858;4.392;2022-08-05T02:53:29;17.95;;;5.10;;
43678;SDS011;29279;50.858;4.392;2022-08-05T02:55:56;14.65;;;5.28;;
43678;SDS011;29279;50.858;4.392;2022-08-05T02:58:23;13.25;;;4.38;;
43678;SDS011;29279;50.858;4.392;2022-08-05T03:00:49;15.10;;;4.57;;
43678;SDS011;29279;50.858;4.392;2022-08-05T03:03:19;12.50;;;4.97;;
43678;SDS011;29279;50.858;4.392;2022-08-05T03:05:46;15.52;;;5.20;;
43678;SDS011;29279;50.858;4.392;2022-08-05T03:08:13;16.80;;;4.47;;
43678;SDS011;29279;50.858;4.392;2022-08-05T03:10:43;11.65;;;4.68;;
43678;SDS011;29279;50.858;4.392;2022-08-05T03:13:13;20.63;;;4.60;;
43678;SDS011;29279;50.858;4.392;2022-08-05T03:15:45;20.95;;;5.25;;
43678;SDS011;29279;50.858;4.392;2022-08-05T03:18:12;11.63;;;4.90;;
43678;SDS011;29279;50.858;4.392;2022-08-05T03:20:38;15.50;;;4.80;;
43678;SDS011;29279;50.858;4.392;2022-08-05T03:23:04;17.88;;;5.38;;
43678;SDS011;29279;50.858;4.392;2022-08-05T03:25:32;19.08;;;5.82;;
43678;SDS011;29279;50.858;4.392;2022-08-05T03:27:59;17.73;;;5.63;;
43678;SDS011;29279;50.858;4.392;2022-08-05T03:30:27;16.83;;;6.25;;
43678;SDS011;29279;50.858;4.392;2022-08-05T03:32:56;18.77;;;5.50;;
43678;SDS011;29279;50.858;4.392;2022-08-05T03:35:23;18.00;;;5.80;;
43678;SDS011;29279;50.858;4.392;2022-08-05T03:37:51;20.27;;;6.38;;
43678;SDS011;29279;50.858;4.392;2022-08-05T03:40:20;17.40;;;4.85;;
43678;SDS011;29279;50.858;4.392;2022-08-05T03:42:45;13.43;;;5.65;;
43678;SDS011;29279;50.858;4.392;2022-08-05T03:45:11;18.83;;;5.72;;
43678;SDS011;29279;50.858;4.392;2022-08-05T03:47:37;17.55;;;5.88;;
43678;SDS011;29279;50.858;4.392;2022-08-05T03:50:04;15.68;;;5.53;;
43678;SDS011;29279;50.858;4.392;2022-08-05T03:52:35;14.88;;;5.22;;
43678;SDS011;29279;50.858;4.392;2022-08-05T03:55:09;30.60;;;5.97;;
43678;SDS011;29279;50.858;4.392;2022-08-05T03:57:39;13.63;;;4.85;;
43678;SDS011;29279;50.858;4.392;2022-08-05T04:00:08;15.82;;;5.35;;
43678;SDS011;29279;50.858;4.392;2022-08-05T04:02:37;16.70;;;5.10;;
43678;SDS011;29279;50.858;4.392;2022-08-05T04:05:07;16.00;;;5.65;;
43678;SDS011;29279;50.858;4.392;2022-08-05T04:07:34;24.95;;;6.38;;
43678;SDS011;29279;50.858;4.392;2022-08-05T04:10:00;19.67;;;6.13;;
43678;SDS011;29279;50.858;4.392;2022-08-05T04:12:27;16.83;;;5.70;;
43678;SDS011;29279;50.858;4.392;2022-08-05T04:14:53;15.15;;;5.30;;
43678;SDS011;29279;50.858;4.392;2022-08-05T04:17:19;11.95;;;5.53;;
43678;SDS011;29279;50.858;4.392;2022-08-05T04:19:46;11.98;;;5.65;;
43678;SDS011;29279;50.858;4.392;2022-08-05T04:22:12;20.45;;;6.43;;
43678;SDS011;29279;50.858;4.392;2022-08-05T04:24:39;17.27;;;5.80;;
43678;SDS011;29279;50.858;4.392;2022-08-05T04:27:09;18.60;;;5.80;;
43678;SDS011;29279;50.858;4.392;2022-08-05T04:29:35;15.25;;;5.78;;
43678;SDS011;29279;50.858;4.392;2022-08-05T04:32:01;18.35;;;5.82;;
43678;SDS011;29279;50.858;4.392;2022-08-05T04:34:27;21.50;;;5.65;;
43678;SDS011;29279;50.858;4.392;2022-08-05T04:36:52;14.98;;;4.85;;
43678;SDS011;29279;50.858;4.392;2022-08-05T04:39:18;18.30;;;6.20;;
43678;SDS011;29279;50.858;4.392;2022-08-05T04:41:45;18.40;;;6.43;;
43678;SDS011;29279;50.858;4.392;2022-08-05T04:44:11;21.30;;;6.28;;
43678;SDS011;29279;50.858;4.392;2022-08-05T04:46:38;16.27;;;6.22;;
43678;SDS011;29279;50.858;4.392;2022-08-05T04:49:04;22.23;;;6.82;;
43678;SDS011;29279;50.858;4.392;2022-08-05T04:51:30;20.92;;;5.75;;
43678;SDS011;29279;50.858;4.392;2022-08-05T04:53:56;14.65;;;5.93;;
43678;SDS011;29279;50.858;4.392;2022-08-05T04:56:25;22.73;;;6.18;;
43678;SDS011;29279;50.858;4.392;2022-08-05T04:58:51;13.13;;;5.65;;
43678;SDS011;29279;50.858;4.392;2022-08-05T05:01:17;25.42;;;6.43;;
43678;SDS011;29279;50.858;4.392;2022-08-05T05:03:43;25.00;;;6.03;;
43678;SDS011;29279;50.858;4.392;2022-08-05T05:06:12;20.50;;;6.40;;
43678;SDS011;29279;50.858;4.392;2022-08-05T05:08:38;24.70;;;6.05;;
43678;SDS011;29279;50.858;4.392;2022-08-05T05:11:04;23.50;;;5.63;;
43678;SDS011;29279;50.858;4.392;2022-08-05T05:13:30;20.70;;;6.07;;
43678;SDS011;29279;50.858;4.392;2022-08-05T05:15:56;17.33;;;5.10;;
43678;SDS011;29279;50.858;4.392;2022-08-05T05:18:22;16.20;;;5.80;;
43678;SDS011;29279;50.858;4.392;2022-08-05T05:20:48;21.27;;;5.43;;
43678;SDS011;29279;50.858;4.392;2022-08-05T05:23:14;14.88;;;5.40;;
43678;SDS011;29279;50.858;4.392;2022-08-05T05:25:40;19.63;;;5.90;;
43678;SDS011;29279;50.858;4.392;2022-08-05T05:28:07;15.82;;;5.65;;
43678;SDS011;29279;50.858;4.392;2022-08-05T05:30:33;25.25;;;6.80;;
43678;SDS011;29279;50.858;4.392;2022-08-05T05:32:59;16.27;;;5.45;;
43678;SDS011;29279;50.858;4.392;2022-08-05T05:35:28;23.38;;;6.20;;
43678;SDS011;29279;50.858;4.392;2022-08-05T05:37:55;18.38;;;5.20;;
43678;SDS011;29279;50.858;4.392;2022-08-05T05:40:24;17.63;;;5.43;;
43678;SDS011;29279;50.858;4.392;2022-08-05T05:42:51;19.02;;;5.95;;
43678;SDS011;29279;50.858;4.392;2022-08-05T05:45:17;13.70;;;5.45;;
43678;SDS011;29279;50.858;4.392;2022-08-05T05:47:44;15.80;;;4.05;;
43678;SDS011;29279;50.858;4.392;2022-08-05T05:50:11;16.67;;;5.47;;
43678;SDS011;29279;50.858;4.392;2022-08-05T05:52:38;21.60;;;5.18;;
43678;SDS011;29279;50.858;4.392;2022-08-05T05:55:05;18.58;;;5.68;;
43678;SDS011;29279;50.858;4.392;2022-08-05T05:57:34;27.70;;;6.63;;
43678;SDS011;29279;50.858;4.392;2022-08-05T06:00:00;16.15;;;5.55;;
43678;SDS011;29279;50.858;4.392;2022-08-05T06:02:26;20.98;;;5.75;;
43678;SDS011;29279;50.858;4.392;2022-08-05T06:04:52;20.70;;;5.85;;
43678;SDS011;29279;50.858;4.392;2022-08-05T06:07:17;19.95;;;6.15;;
43678;SDS011;29279;50.858;4.392;2022-08-05T06:09:43;15.88;;;4.93;;
43678;SDS011;29279;50.858;4.392;2022-08-05T06:12:08;20.05;;;5.53;;
43678;SDS011;29279;50.858;4.392;2022-08-05T06:14:34;26.02;;;6.32;;
43678;SDS011;29279;50.858;4.392;2022-08-05T06:17:00;19.02;;;5.15;;
43678;SDS011;29279;50.858;4.392;2022-08-05T06:19:26;21.48;;;5.40;;
43678;SDS011;29279;50.858;4.392;2022-08-05T06:21:52;19.25;;;4.90;;
43678;SDS011;29279;50.858;4.392;2022-08-05T06:24:17;17.33;;;5.35;;
43678;SDS011;29279;50.858;4.392;2022-08-05T06:26:43;17.40;;;5.05;;
43678;SDS011;29279;50.858;4.392;2022-08-05T06:29:10;17.13;;;5.15;;
43678;SDS011;29279;50.858;4.392;2022-08-05T06:31:35;14.68;;;5.30;;
43678;SDS011;29279;50.858;4.392;2022-08-05T06:34:02;13.40;;;5.10;;
43678;SDS011;29279;50.858;4.392;2022-08-05T06:36:28;20.73;;;5.70;;
43678;SDS011;29279;50.858;4.392;2022-08-05T06:38:54;15.65;;;6.30;;
43678;SDS011;29279;50.858;4.392;2022-08-05T06:41:20;17.02;;;5.70;;
43678;SDS011;29279;50.858;4.392;2022-08-05T06:43:46;14.77;;;5.70;;
43678;SDS011;29279;50.858;4.392;2022-08-05T06:46:12;21.30;;;5.72;;
43678;SDS011;29279;50.858;4.392;2022-08-05T06:48:38;18.08;;;5.97;;
43678;SDS011;29279;50.858;4.392;2022-08-05T06:51:04;18.88;;;6.22;;
43678;SDS011;29279;50.858;4.392;2022-08-05T06:53:30;17.08;;;5.05;;
43678;SDS011;29279;50.858;4.392;2022-08-05T06:55:59;18.30;;;6.00;;
43678;SDS011;29279;50.858;4.392;2022-08-05T06:58:27;11.68;;;5.32;;
43678;SDS011;29279;50.858;4.392;2022-08-05T07:00:54;21.52;;;6.68;;
43678;SDS011;29279;50.858;4.392;2022-08-05T07:03:21;13.15;;;5.10;;
43678;SDS011;29279;50.858;4.392;2022-08-05T07:05:47;19.45;;;6.20;;
43678;SDS011;29279;50.858;4.392;2022-08-05T07:08:13;21.80;;;5.95;;
43678;SDS011;29279;50.858;4.392;2022-08-05T07:10:39;19.08;;;5.60;;
43678;SDS011;29279;50.858;4.392;2022-08-05T07:13:05;21.27;;;5.50;;
43678;SDS011;29279;50.858;4.392;2022-08-05T07:15:49;17.23;;;5.35;;
43678;SDS011;29279;50.858;4.392;2022-08-05T07:18:33;13.73;;;5.80;;
43678;SDS011;29279;50.858;4.392;2022-08-05T07:20:59;14.45;;;5.20;;
43678;SDS011;29279;50.858;4.392;2022-08-05T07:23:24;13.15;;;4.80;;
43678;SDS011;29279;50.858;4.392;2022-08-05T07:25:50;15.38;;;6.43;;
43678;SDS011;29279;50.858;4.392;2022-08-05T07:28:16;11.93;;;5.07;;
43678;SDS011;29279;50.858;4.392;2022-08-05T07:30:41;19.65;;;5.85;;
43678;SDS011;29279;50.858;4.392;2022-08-05T07:33:08;14.15;;;5.10;;
43678;SDS011;29279;50.858;4.392;2022-08-05T07:35:35;12.68;;;5.07;;
43678;SDS011;29279;50.858;4.392;2022-08-05T07:38:02;19.30;;;4.65;;
43678;SDS011;29279;50.858;4.392;2022-08-05T07:40:27;17.10;;;5.18;;
43678;SDS011;29279;50.858;4.392;2022-08-05T07:42:53;17.98;;;5.03;;
43678;SDS011;29279;50.858;4.392;2022-08-05T07:45:19;20.25;;;4.93;;
43678;SDS011;29279;50.858;4.392;2022-08-05T07:47:45;18.95;;;6.35;;
43678;SDS011;29279;50.858;4.392;2022-08-05T07:50:10;13.20;;;5.28;;
43678;SDS011;29279;50.858;4.392;2022-08-05T07:52:37;21.05;;;4.45;;
43678;SDS011;29279;50.858;4.392;2022-08-05T07:55:07;17.45;;;4.85;;
43678;SDS011;29279;50.858;4.392;2022-08-05T07:57:34;14.75;;;4.93;;
43678;SDS011;29279;50.858;4.392;2022-08-05T08:00:01;16.80;;;4.65;;
43678;SDS011;29279;50.858;4.392;2022-08-05T08:02:28;18.88;;;4.82;;
43678;SDS011;29279;50.858;4.392;2022-08-05T08:04:54;12.48;;;4.10;;
43678;SDS011;29279;50.858;4.392;2022-08-05T08:07:20;15.63;;;4.57;;
43678;SDS011;29279;50.858;4.392;2022-08-05T08:09:47;11.18;;;4.68;;
43678;SDS011;29279;50.858;4.392;2022-08-05T08:12:13;14.02;;;4.20;;
43678;SDS011;29279;50.858;4.392;2022-08-05T08:14:40;17.15;;;3.97;;
43678;SDS011;29279;50.858;4.392;2022-08-05T08:17:06;11.65;;;3.72;;
43678;SDS011;29279;50.858;4.392;2022-08-05T08:19:38;8.77;;;3.25;;
43678;SDS011;29279;50.858;4.392;2022-08-05T08:22:05;8.60;;;2.88;;
43678;SDS011;29279;50.858;4.392;2022-08-05T08:24:32;11.40;;;3.83;;
43678;SDS011;29279;50.858;4.392;2022-08-05T08:26:58;10.25;;;3.15;;
43678;SDS011;29279;50.858;4.392;2022-08-05T08:29:24;14.50;;;3.67;;
43678;SDS011;29279;50.858;4.392;2022-08-05T08:31:50;8.30;;;2.88;;
43678;SDS011;29279;50.858;4.392;2022-08-05T08:34:16;13.52;;;2.42;;
43678;SDS011;29279;50.858;4.392;2022-08-05T08:36:43;12.95;;;2.97;;
43678;SDS011;29279;50.858;4.392;2022-08-05T08:39:08;8.20;;;2.70;;
43678;SDS011;29279;50.858;4.392;2022-08-05T08:41:34;10.90;;;2.40;;
43678;SDS011;29279;50.858;4.392;2022-08-05T08:44:02;10.70;;;3.00;;
43678;SDS011;29279;50.858;4.392;2022-08-05T08:46:30;9.13;;;2.55;;
43678;SDS011;29279;50.858;4.392;2022-08-05T08:48:56;9.52;;;2.67;;
43678;SDS011;29279;50.858;4.392;2022-08-05T08:51:23;9.25;;;2.33;;
43678;SDS011;29279;50.858;4.392;2022-08-05T08:53:51;6.80;;;2.00;;
43678;SDS011;29279;50.858;4.392;2022-08-05T08:56:18;12.20;;;2.28;;
43678;SDS011;29279;50.858;4.392;2022-08-05T08:58:45;11.05;;;2.40;;
43678;SDS011;29279;50.858;4.392;2022-08-05T09:01:11;11.20;;;2.00;;
43678;SDS011;29279;50.858;4.392;2022-08-05T09:03:37;13.60;;;2.40;;
43678;SDS011;29279;50.858;4.392;2022-08-05T09:06:05;6.28;;;1.98;;
43678;SDS011;29279;50.858;4.392;2022-08-05T09:08:31;8.80;;;2.40;;
43678;SDS011;29279;50.858;4.392;2022-08-05T09:10:57;10.93;;;2.30;;
43678;SDS011;29279;50.858;4.392;2022-08-05T09:13:23;9.70;;;2.05;;
43678;SDS011;29279;50.858;4.392;2022-08-05T09:15:49;6.10;;;2.00;;
43678;SDS011;29279;50.858;4.392;2022-08-05T09:18:16;6.18;;;2.22;;
43678;SDS011;29279;50.858;4.392;2022-08-05T09:20:43;6.38;;;1.90;;
43678;SDS011;29279;50.858;4.392;2022-08-05T09:25:40;6.97;;;2.08;;
43678;SDS011;29279;50.858;4.392;2022-08-05T09:28:11;8.85;;;2.25;;
43678;SDS011;29279;50.858;4.392;2022-08-05T09:30:40;7.38;;;2.05;;
43678;SDS011;29279;50.858;4.392;2022-08-05T09:33:07;10.27;;;2.58;;
43678;SDS011;29279;50.858;4.392;2022-08-05T09:35:33;7.43;;;2.95;;
43678;SDS011;29279;50.858;4.392;2022-08-05T09:37:59;10.88;;;2.88;;
43678;SDS011;29279;50.858;4.392;2022-08-05T09:40:32;7.47;;;3.30;;
43678;SDS011;29279;50.858;4.392;2022-08-05T09:43:03;11.05;;;2.80;;
43678;SDS011;29279;50.858;4.392;2022-08-05T09:45:41;7.47;;;2.42;;
43678;SDS011;29279;50.858;4.392;2022-08-05T09:48:19;9.25;;;2.22;;
43678;SDS011;29279;50.858;4.392;2022-08-05T09:50:53;4.03;;;1.88;;
43678;SDS011;29279;50.858;4.392;2022-08-05T09:53:21;5.60;;;1.87;;
43678;SDS011;29279;50.858;4.392;2022-08-05T09:56:00;8.73;;;1.83;;
43678;SDS011;29279;50.858;4.392;2022-08-05T09:58:26;4.95;;;1.30;;
43678;SDS011;29279;50.858;4.392;2022-08-05T10:00:53;10.18;;;2.08;;
43678;SDS011;29279;50.858;4.392;2022-08-05T10:03:29;6.85;;;1.73;;
43678;SDS011;29279;50.858;4.392;2022-08-05T10:06:07;3.20;;;1.45;;
43678;SDS011;29279;50.858;4.392;2022-08-05T10:08:37;4.40;;;1.30;;
43678;SDS011;29279;50.858;4.392;2022-08-05T10:11:13;7.85;;;1.45;;
43678;SDS011;29279;50.858;4.392;2022-08-05T10:13:40;6.43;;;1.23;;
43678;SDS011;29279;50.858;4.392;2022-08-05T10:16:07;12.05;;;1.67;;
43678;SDS011;29279;50.858;4.392;2022-08-05T10:19:00;12.65;;;1.50;;
43678;SDS011;29279;50.858;4.392;2022-08-05T10:21:27;5.45;;;1.70;;
43678;SDS011;29279;50.858;4.392;2022-08-05T10:23:53;2.47;;;0.93;;
43678;SDS011;29279;50.858;4.392;2022-08-05T10:26:19;5.72;;;1.20;;
43678;SDS011;29279;50.858;4.392;2022-08-05T10:28:45;7.13;;;1.10;;
43678;SDS011;29279;50.858;4.392;2022-08-05T10:31:13;4.15;;;1.30;;
43678;SDS011;29279;50.858;4.392;2022-08-05T10:33:40;4.97;;;1.15;;
43678;SDS011;29279;50.858;4.392;2022-08-05T10:36:07;4.18;;;0.90;;
43678;SDS011;29279;50.858;4.392;2022-08-05T10:38:34;6.50;;;1.30;;
43678;SDS011;29279;50.858;4.392;2022-08-05T10:41:03;5.95;;;1.13;;
43678;SDS011;29279;50.858;4.392;2022-08-05T10:46:07;6.55;;;1.48;;
43678;SDS011;29279;50.858;4.392;2022-08-05T10:48:42;5.63;;;1.00;;
43678;SDS011;29279;50.858;4.392;2022-08-05T10:53:39;14.60;;;2.47;;
43678;SDS011;29279;50.858;4.392;2022-08-05T10:56:10;10.98;;;1.50;;
43678;SDS011;29279;50.858;4.392;2022-08-05T11:01:29;6.18;;;1.55;;
43678;SDS011;29279;50.858;4.392;2022-08-05T11:04:38;10.15;;;1.98;;
43678;SDS011;29279;50.858;4.392;2022-08-05T11:09:37;3.63;;;1.23;;
43678;SDS011;29279;50.858;4.392;2022-08-05T11:12:04;3.22;;;1.02;;
43678;SDS011;29279;50.858;4.392;2022-08-05T11:17:36;7.72;;;1.63;;
43678;SDS011;29279;50.858;4.392;2022-08-05T11:20:06;8.25;;;3.03;;
43678;SDS011;29279;50.858;4.392;2022-08-05T11:22:52;11.57;;;2.30;;
43678;SDS011;29279;50.858;4.392;2022-08-05T11:33:24;7.50;;;1.02;;
43678;SDS011;29279;50.858;4.392;2022-08-05T11:35:54;3.40;;;1.05;;
43678;SDS011;29279;50.858;4.392;2022-08-05T11:43:43;4.70;;;1.20;;
43678;SDS011;29279;50.858;4.392;2022-08-05T11:46:26;21.55;;;2.22;;
43678;SDS011;29279;50.858;4.392;2022-08-05T11:48:52;7.28;;;1.00;;
43678;SDS011;29279;50.858;4.392;2022-08-05T11:51:19;4.68;;;1.80;;
43678;SDS011;29279;50.858;4.392;2022-08-05T11:53:45;4.40;;;1.20;;
43678;SDS011;29279;50.858;4.392;2022-08-05T11:56:11;8.25;;;1.42;;
43678;SDS011;29279;50.858;4.392;2022-08-05T11:58:38;3.33;;;0.70;;
43678;SDS011;29279;50.858;4.392;2022-08-05T12:01:06;5.90;;;0.85;;
43678;SDS011;29279;50.858;4.392;2022-08-05T12:03:43;4.68;;;1.08;;
43678;SDS011;29279;50.858;4.392;2022-08-05T12:06:11;4.90;;;1.30;;
43678;SDS011;29279;50.858;4.392;2022-08-05T12:08:48;7.50;;;1.10;;
43678;SDS011;29279;50.858;4.392;2022-08-05T12:11:19;6.57;;;1.02;;
43678;SDS011;29279;50.858;4.392;2022-08-05T12:13:54;7.07;;;0.98;;
43678;SDS011;29279;50.858;4.392;2022-08-05T12:16:26;5.07;;;1.17;;
43678;SDS011;29279;50.858;4.392;2022-08-05T12:18:55;2.00;;;0.65;;
43678;SDS011;29279;50.858;4.392;2022-08-05T12:21:31;4.40;;;1.10;;
43678;SDS011;29279;50.858;4.392;2022-08-05T12:24:09;4.80;;;0.90;;
43678;SDS011;29279;50.858;4.392;2022-08-05T12:26:38;7.00;;;0.90;;
43678;SDS011;29279;50.858;4.392;2022-08-05T12:29:24;3.00;;;0.93;;
43678;SDS011;29279;50.858;4.392;2022-08-05T12:31:54;5.50;;;0.95;;
43678;SDS011;29279;50.858;4.392;2022-08-05T12:34:24;10.60;;;1.20;;
43678;SDS011;29279;50.858;4.392;2022-08-05T12:36:52;6.38;;;1.00;;
43678;SDS011;29279;50.858;4.392;2022-08-05T12:39:19;4.40;;;1.15;;
43678;SDS011;29279;50.858;4.392;2022-08-05T12:41:47;7.05;;;0.88;;
43678;SDS011;29279;50.858;4.392;2022-08-05T12:44:13;5.07;;;0.77;;
43678;SDS011;29279;50.858;4.392;2022-08-05T12:46:40;3.78;;;1.00;;
43678;SDS011;29279;50.858;4.392;2022-08-05T12:49:13;5.93;;;0.70;;
43678;SDS011;29279;50.858;4.392;2022-08-05T12:51:43;7.15;;;1.05;;
43678;SDS011;29279;50.858;4.392;2022-08-05T12:54:10;4.45;;;0.70;;
43678;SDS011;29279;50.858;4.392;2022-08-05T12:56:42;2.72;;;0.70;;
43678;SDS011;29279;50.858;4.392;2022-08-05T12:59:11;2.58;;;0.63;;
43678;SDS011;29279;50.858;4.392;2022-08-05T13:01:42;2.97;;;0.80;;
43678;SDS011;29279;50.858;4.392;2022-08-05T13:04:10;12.13;;;1.00;;
43678;SDS011;29279;50.858;4.392;2022-08-05T13:06:37;4.63;;;0.68;;
43678;SDS011;29279;50.858;4.392;2022-08-05T13:09:06;3.53;;;0.80;;
43678;SDS011;29279;50.858;4.392;2022-08-05T13:11:37;1.98;;;0.65;;
43678;SDS011;29279;50.858;4.392;2022-08-05T13:14:14;2.40;;;0.73;;
43678;SDS011;29279;50.858;4.392;2022-08-05T13:16:49;4.68;;;0.50;;
43678;SDS011;29279;50.858;4.392;2022-08-05T13:19:25;3.85;;;0.73;;
43678;SDS011;29279;50.858;4.392;2022-08-05T13:21:53;7.00;;;1.15;;
43678;SDS011;29279;50.858;4.392;2022-08-05T13:24:20;2.65;;;0.70;;
43678;SDS011;29279;50.858;4.392;2022-08-05T13:26:48;3.00;;;0.65;;
43678;SDS011;29279;50.858;4.392;2022-08-05T13:29:15;3.53;;;0.60;;
43678;SDS011;29279;50.858;4.392;2022-08-05T13:31:41;1.65;;;0.60;;
43678;SDS011;29279;50.858;4.392;2022-08-05T13:34:07;5.10;;;1.02;;
43678;SDS011;29279;50.858;4.392;2022-08-05T13:36:34;2.63;;;0.70;;
43678;SDS011;29279;50.858;4.392;2022-08-05T13:39:00;3.53;;;1.08;;
43678;SDS011;29279;50.858;4.392;2022-08-05T13:41:27;7.70;;;0.70;;
43678;SDS011;29279;50.858;4.392;2022-08-05T13:43:53;3.28;;;0.65;;
43678;SDS011;29279;50.858;4.392;2022-08-05T13:46:19;4.88;;;0.68;;
43678;SDS011;29279;50.858;4.392;2022-08-05T13:48:45;2.25;;;0.77;;
43678;SDS011;29279;50.858;4.392;2022-08-05T13:51:11;3.13;;;0.57;;
43678;SDS011;29279;50.858;4.392;2022-08-05T13:53:38;1.63;;;0.60;;
43678;SDS011;29279;50.858;4.392;2022-08-05T13:56:03;5.40;;;0.82;;
43678;SDS011;29279;50.858;4.392;2022-08-05T13:58:29;4.63;;;0.73;;
43678;SDS011;29279;50.858;4.392;2022-08-05T14:00:55;4.25;;;0.77;;
43678;SDS011;29279;50.858;4.392;2022-08-05T14:03:22;5.88;;;0.70;;
43678;SDS011;29279;50.858;4.392;2022-08-05T14:05:48;3.63;;;0.70;;
43678;SDS011;29279;50.858;4.392;2022-08-05T14:08:14;3.03;;;0.70;;
43678;SDS011;29279;50.858;4.392;2022-08-05T14:10:40;2.45;;;0.82;;
43678;SDS011;29279;50.858;4.392;2022-08-05T14:13:06;1.33;;;0.55;;
43678;SDS011;29279;50.858;4.392;2022-08-05T14:15:32;4.38;;;1.30;;
43678;SDS011;29279;50.858;4.392;2022-08-05T14:17:58;2.30;;;0.68;;
43678;SDS011;29279;50.858;4.392;2022-08-05T14:20:25;4.28;;;0.75;;
43678;SDS011;29279;50.858;4.392;2022-08-05T14:22:51;4.72;;;0.68;;
43678;SDS011;29279;50.858;4.392;2022-08-05T14:25:17;3.33;;;0.80;;
43678;SDS011;29279;50.858;4.392;2022-08-05T14:27:45;3.42;;;0.60;;
43678;SDS011;29279;50.858;4.392;2022-08-05T14:30:15;4.93;;;0.88;;
43678;SDS011;29279;50.858;4.392;2022-08-05T14:32:42;4.47;;;0.60;;
43678;SDS011;29279;50.858;4.392;2022-08-05T14:35:08;3.67;;;0.82;;
43678;SDS011;29279;50.858;4.392;2022-08-05T14:37:34;3.85;;;0.73;;
43678;SDS011;29279;50.858;4.392;2022-08-05T14:40:00;5.10;;;0.65;;
43678;SDS011;29279;50.858;4.392;2022-08-05T14:42:26;1.73;;;0.32;;
43678;SDS011;29279;50.858;4.392;2022-08-05T14:44:52;4.88;;;0.60;;
43678;SDS011;29279;50.858;4.392;2022-08-05T14:47:17;2.40;;;0.60;;
43678;SDS011;29279;50.858;4.392;2022-08-05T14:49:43;2.67;;;0.52;;
43678;SDS011;29279;50.858;4.392;2022-08-05T14:52:09;4.13;;;0.68;;
43678;SDS011;29279;50.858;4.392;2022-08-05T14:54:34;4.10;;;0.60;;
43678;SDS011;29279;50.858;4.392;2022-08-05T14:57:00;8.43;;;1.10;;
43678;SDS011;29279;50.858;4.392;2022-08-05T14:59:26;2.25;;;0.80;;
43678;SDS011;29279;50.858;4.392;2022-08-05T15:01:52;3.53;;;0.90;;
43678;SDS011;29279;50.858;4.392;2022-08-05T15:04:19;3.25;;;0.75;;
43678;SDS011;29279;50.858;4.392;2022-08-05T15:06:45;7.43;;;0.65;;
43678;SDS011;29279;50.858;4.392;2022-08-05T15:09:11;6.10;;;0.85;;
43678;SDS011;29279;50.858;4.392;2022-08-05T15:11:36;7.32;;;0.70;;
43678;SDS011;29279;50.858;4.392;2022-08-05T15:14:02;4.45;;;0.70;;
43678;SDS011;29279;50.858;4.392;2022-08-05T15:16:28;4.40;;;1.00;;
43678;SDS011;29279;50.858;4.392;2022-08-05T15:18:54;8.02;;;0.88;;
43678;SDS011;29279;50.858;4.392;2022-08-05T15:21:21;4.68;;;0.85;;
43678;SDS011;29279;50.858;4.392;2022-08-05T15:23:47;1.42;;;0.77;;